sensor_id;sensor_type;location;lat;lon;timestamp;P1;durP1;ratioP1;P2;durP2;ratioP2
3004;SDS011;1512;51.486;6.610;2022-08-01T00:04:05;10.40;;;7.63;;
3004;SDS011;1512;51.486;6.610;2022-08-01T00:08:14;8.20;;;7.40;;
3004;SDS011;1512;51.486;6.610;2022-08-01T00:12:22;8.23;;;7.43;;
3004;SDS011;1512;51.486;6.610;2022-08-01T00:16:31;9.77;;;8.30;;
3004;SDS011;1512;51.486;6.610;2022-08-01T00:20:40;9.37;;;8.37;;
3004;SDS011;1512;51.486;6.610;2022-08-01T00:24:48;10.47;;;9.37;;
3004;SDS011;1512;51.486;6.610;2022-08-01T00:28:57;11.23;;;10.07;;
3004;SDS011;1512;51.486;6.610;2022-08-01T00:33:06;9.27;;;8.00;;
3004;SDS011;1512;51.486;6.610;2022-08-01T00:37:15;9.53;;;8.60;;
3004;SDS011;1512;51.486;6.610;2022-08-01T00:41:23;14.73;;;9.10;;
3004;SDS011;1512;51.486;6.610;2022-08-01T00:45:32;10.60;;;6.17;;
3004;SDS011;1512;51.486;6.610;2022-08-01T00:49:41;11.40;;;8.43;;
3004;SDS011;1512;51.486;6.610;2022-08-01T00:58:19;11.23;;;8.10;;
3004;SDS011;1512;51.486;6.610;2022-08-01T01:02:29;8.47;;;6.83;;
3004;SDS011;1512;51.486;6.610;2022-08-01T01:06:44;8.63;;;7.83;;
3004;SDS011;1512;51.486;6.610;2022-08-01T01:11:09;10.03;;;8.10;;
3004;SDS011;1512;51.486;6.610;2022-08-01T01:19:50;11.17;;;9.03;;
3004;SDS011;1512;51.486;6.610;2022-08-01T01:24:46;11.90;;;9.53;;
3004;SDS011;1512;51.486;6.610;2022-08-01T01:28:34;10.43;;;8.83;;
3004;SDS011;1512;51.486;6.610;2022-08-01T01:32:46;8.93;;;8.03;;
3004;SDS011;1512;51.486;6.610;2022-08-01T01:36:56;10.07;;;8.43;;
3004;SDS011;1512;51.486;6.610;2022-08-01T01:41:07;9.70;;;8.50;;
3004;SDS011;1512;51.486;6.610;2022-08-01T01:45:18;10.00;;;8.37;;
3004;SDS011;1512;51.486;6.610;2022-08-01T01:49:27;21.87;;;10.90;;
3004;SDS011;1512;51.486;6.610;2022-08-01T01:58:07;13.03;;;9.20;;
3004;SDS011;1512;51.486;6.610;2022-08-01T02:02:18;14.57;;;9.20;;
3004;SDS011;1512;51.486;6.610;2022-08-01T02:06:29;11.63;;;9.40;;
3004;SDS011;1512;51.486;6.610;2022-08-01T02:10:39;14.60;;;10.80;;
3004;SDS011;1512;51.486;6.610;2022-08-01T02:19:20;11.80;;;10.37;;
3004;SDS011;1512;51.486;6.610;2022-08-01T02:23:31;13.60;;;10.50;;
3004;SDS011;1512;51.486;6.610;2022-08-01T02:27:42;13.70;;;9.43;;
3004;SDS011;1512;51.486;6.610;2022-08-01T02:31:51;14.33;;;10.83;;
3004;SDS011;1512;51.486;6.610;2022-08-01T02:36:02;22.83;;;11.07;;
3004;SDS011;1512;51.486;6.610;2022-08-01T02:40:14;15.13;;;10.40;;
3004;SDS011;1512;51.486;6.610;2022-08-01T02:44:27;15.17;;;11.60;;
3004;SDS011;1512;51.486;6.610;2022-08-01T02:48:37;20.93;;;11.47;;
3004;SDS011;1512;51.486;6.610;2022-08-01T02:52:48;17.93;;;10.50;;
3004;SDS011;1512;51.486;6.610;2022-08-01T02:56:58;17.00;;;12.23;;
3004;SDS011;1512;51.486;6.610;2022-08-01T03:01:10;14.70;;;11.13;;
3004;SDS011;1512;51.486;6.610;2022-08-01T03:05:21;17.77;;;11.57;;
3004;SDS011;1512;51.486;6.610;2022-08-01T03:09:32;16.03;;;11.37;;
3004;SDS011;1512;51.486;6.610;2022-08-01T03:13:43;13.03;;;11.00;;
3004;SDS011;1512;51.486;6.610;2022-08-01T03:17:54;14.53;;;10.67;;
3004;SDS011;1512;51.486;6.610;2022-08-01T03:22:08;16.17;;;11.37;;
3004;SDS011;1512;51.486;6.610;2022-08-01T03:26:19;14.23;;;11.60;;
3004;SDS011;1512;51.486;6.610;2022-08-01T03:30:29;17.70;;;11.30;;
3004;SDS011;1512;51.486;6.610;2022-08-01T03:34:40;14.60;;;9.77;;
3004;SDS011;1512;51.486;6.610;2022-08-01T03:38:49;15.93;;;10.40;;
3004;SDS011;1512;51.486;6.610;2022-08-01T03:43:02;13.13;;;10.47;;
3004;SDS011;1512;51.486;6.610;2022-08-01T03:47:11;11.90;;;9.37;;
3004;SDS011;1512;51.486;6.610;2022-08-01T03:51:23;17.70;;;11.23;;
3004;SDS011;1512;51.486;6.610;2022-08-01T03:55:31;15.00;;;10.67;;
3004;SDS011;1512;51.486;6.610;2022-08-01T03:59:42;12.33;;;10.53;;
3004;SDS011;1512;51.486;6.610;2022-08-01T04:03:51;14.20;;;10.10;;
3004;SDS011;1512;51.486;6.610;2022-08-01T04:08:00;12.47;;;10.53;;
3004;SDS011;1512;51.486;6.610;2022-08-01T04:12:09;12.93;;;9.70;;
3004;SDS011;1512;51.486;6.610;2022-08-01T04:16:19;14.63;;;11.47;;
3004;SDS011;1512;51.486;6.610;2022-08-01T04:20:28;17.23;;;11.60;;
3004;SDS011;1512;51.486;6.610;2022-08-01T04:24:37;16.50;;;10.33;;
3004;SDS011;1512;51.486;6.610;2022-08-01T04:28:46;14.43;;;9.70;;
3004;SDS011;1512;51.486;6.610;2022-08-01T04:32:58;14.80;;;11.43;;
3004;SDS011;1512;51.486;6.610;2022-08-01T04:37:10;16.60;;;10.23;;
3004;SDS011;1512;51.486;6.610;2022-08-01T04:41:20;13.30;;;10.17;;
3004;SDS011;1512;51.486;6.610;2022-08-01T04:45:30;14.97;;;10.00;;
3004;SDS011;1512;51.486;6.610;2022-08-01T04:49:40;14.90;;;10.63;;
3004;SDS011;1512;51.486;6.610;2022-08-01T04:53:51;15.53;;;10.87;;
3004;SDS011;1512;51.486;6.610;2022-08-01T04:57:59;15.00;;;11.50;;
3004;SDS011;1512;51.486;6.610;2022-08-01T05:02:12;15.80;;;10.37;;
3004;SDS011;1512;51.486;6.610;2022-08-01T05:06:23;12.83;;;9.70;;
3004;SDS011;1512;51.486;6.610;2022-08-01T05:10:31;13.07;;;9.43;;
3004;SDS011;1512;51.486;6.610;2022-08-01T05:14:40;14.97;;;10.33;;
3004;SDS011;1512;51.486;6.610;2022-08-01T05:18:49;11.43;;;9.03;;
3004;SDS011;1512;51.486;6.610;2022-08-01T05:22:57;12.53;;;9.20;;
3004;SDS011;1512;51.486;6.610;2022-08-01T05:27:06;13.90;;;9.87;;
3004;SDS011;1512;51.486;6.610;2022-08-01T05:31:16;16.60;;;10.90;;
3004;SDS011;1512;51.486;6.610;2022-08-01T05:35:25;11.43;;;9.10;;
3004;SDS011;1512;51.486;6.610;2022-08-01T05:39:35;15.73;;;10.43;;
3004;SDS011;1512;51.486;6.610;2022-08-01T05:43:44;10.17;;;8.80;;
3004;SDS011;1512;51.486;6.610;2022-08-01T05:47:53;15.13;;;9.97;;
3004;SDS011;1512;51.486;6.610;2022-08-01T05:52:02;11.43;;;9.27;;
3004;SDS011;1512;51.486;6.610;2022-08-01T05:56:12;12.23;;;9.00;;
3004;SDS011;1512;51.486;6.610;2022-08-01T06:00:21;11.97;;;9.27;;
3004;SDS011;1512;51.486;6.610;2022-08-01T06:04:29;14.80;;;9.00;;
3004;SDS011;1512;51.486;6.610;2022-08-01T06:08:38;11.90;;;7.73;;
3004;SDS011;1512;51.486;6.610;2022-08-01T06:12:47;15.53;;;8.27;;
3004;SDS011;1512;51.486;6.610;2022-08-01T06:16:56;11.50;;;8.87;;
3004;SDS011;1512;51.486;6.610;2022-08-01T06:21:08;8.77;;;6.97;;
3004;SDS011;1512;51.486;6.610;2022-08-01T06:25:17;10.67;;;7.77;;
3004;SDS011;1512;51.486;6.610;2022-08-01T06:29:29;13.93;;;7.27;;
3004;SDS011;1512;51.486;6.610;2022-08-01T06:33:41;10.97;;;7.73;;
3004;SDS011;1512;51.486;6.610;2022-08-01T06:37:50;9.83;;;6.60;;
3004;SDS011;1512;51.486;6.610;2022-08-01T06:41:59;8.37;;;6.47;;
3004;SDS011;1512;51.486;6.610;2022-08-01T06:46:07;10.40;;;6.50;;
3004;SDS011;1512;51.486;6.610;2022-08-01T06:50:16;10.40;;;7.40;;
3004;SDS011;1512;51.486;6.610;2022-08-01T06:54:25;11.10;;;7.13;;
3004;SDS011;1512;51.486;6.610;2022-08-01T06:58:34;9.77;;;6.47;;
3004;SDS011;1512;51.486;6.610;2022-08-01T07:02:43;5.43;;;4.93;;
3004;SDS011;1512;51.486;6.610;2022-08-01T07:06:52;6.53;;;5.70;;
3004;SDS011;1512;51.486;6.610;2022-08-01T07:11:01;6.33;;;4.93;;
3004;SDS011;1512;51.486;6.610;2022-08-01T07:15:11;7.45;;;5.90;;
3004;SDS011;1512;51.486;6.610;2022-08-01T07:19:20;7.70;;;6.13;;
3004;SDS011;1512;51.486;6.610;2022-08-01T07:23:29;6.70;;;4.93;;
3004;SDS011;1512;51.486;6.610;2022-08-01T07:27:39;9.80;;;6.57;;
3004;SDS011;1512;51.486;6.610;2022-08-01T07:31:48;8.50;;;5.77;;
3004;SDS011;1512;51.486;6.610;2022-08-01T07:35:56;7.50;;;5.10;;
3004;SDS011;1512;51.486;6.610;2022-08-01T07:40:05;6.10;;;5.50;;
3004;SDS011;1512;51.486;6.610;2022-08-01T07:44:14;5.10;;;4.60;;
3004;SDS011;1512;51.486;6.610;2022-08-01T07:48:23;7.80;;;4.20;;
3004;SDS011;1512;51.486;6.610;2022-08-01T07:52:32;4.33;;;3.63;;
3004;SDS011;1512;51.486;6.610;2022-08-01T07:56:44;5.00;;;3.60;;
3004;SDS011;1512;51.486;6.610;2022-08-01T08:00:53;4.77;;;3.50;;
3004;SDS011;1512;51.486;6.610;2022-08-01T08:05:02;3.87;;;3.27;;
3004;SDS011;1512;51.486;6.610;2022-08-01T08:09:11;8.40;;;3.63;;
3004;SDS011;1512;51.486;6.610;2022-08-01T08:13:20;3.40;;;3.10;;
3004;SDS011;1512;51.486;6.610;2022-08-01T08:17:29;5.63;;;3.77;;
3004;SDS011;1512;51.486;6.610;2022-08-01T08:26:08;2.90;;;2.70;;
3004;SDS011;1512;51.486;6.610;2022-08-01T08:30:18;3.20;;;2.90;;
3004;SDS011;1512;51.486;6.610;2022-08-01T08:34:27;3.73;;;3.30;;
3004;SDS011;1512;51.486;6.610;2022-08-01T08:38:37;4.40;;;3.43;;
3004;SDS011;1512;51.486;6.610;2022-08-01T08:42:46;6.93;;;3.73;;
3004;SDS011;1512;51.486;6.610;2022-08-01T08:46:55;3.53;;;3.23;;
3004;SDS011;1512;51.486;6.610;2022-08-01T08:51:05;3.27;;;2.97;;
3004;SDS011;1512;51.486;6.610;2022-08-01T08:55:17;3.07;;;2.77;;
3004;SDS011;1512;51.486;6.610;2022-08-01T08:59:26;4.47;;;3.90;;
3004;SDS011;1512;51.486;6.610;2022-08-01T09:03:36;2.87;;;2.60;;
3004;SDS011;1512;51.486;6.610;2022-08-01T09:07:44;3.40;;;3.10;;
3004;SDS011;1512;51.486;6.610;2022-08-01T09:16:22;5.17;;;3.90;;
3004;SDS011;1512;51.486;6.610;2022-08-01T09:25:00;3.30;;;3.00;;
3004;SDS011;1512;51.486;6.610;2022-08-01T09:29:16;3.47;;;3.17;;
3004;SDS011;1512;51.486;6.610;2022-08-01T09:33:49;2.83;;;2.53;;
3004;SDS011;1512;51.486;6.610;2022-08-01T09:38:11;3.30;;;2.77;;
3004;SDS011;1512;51.486;6.610;2022-08-01T09:42:23;2.73;;;2.47;;
3004;SDS011;1512;51.486;6.610;2022-08-01T09:46:36;2.80;;;2.40;;
3004;SDS011;1512;51.486;6.610;2022-08-01T09:50:47;3.13;;;2.60;;
3004;SDS011;1512;51.486;6.610;2022-08-01T09:54:59;4.80;;;4.43;;
3004;SDS011;1512;51.486;6.610;2022-08-01T09:59:09;2.43;;;2.20;;
3004;SDS011;1512;51.486;6.610;2022-08-01T10:03:22;2.30;;;2.10;;
3004;SDS011;1512;51.486;6.610;2022-08-01T10:07:30;2.60;;;2.40;;
3004;SDS011;1512;51.486;6.610;2022-08-01T10:11:41;4.47;;;2.83;;
3004;SDS011;1512;51.486;6.610;2022-08-01T10:20:23;2.37;;;2.17;;
3004;SDS011;1512;51.486;6.610;2022-08-01T10:24:36;2.43;;;2.20;;
3004;SDS011;1512;51.486;6.610;2022-08-01T10:28:46;2.00;;;1.80;;
3004;SDS011;1512;51.486;6.610;2022-08-01T10:32:57;2.40;;;2.13;;
3004;SDS011;1512;51.486;6.610;2022-08-01T10:37:07;2.50;;;2.20;;
3004;SDS011;1512;51.486;6.610;2022-08-01T10:41:18;2.60;;;2.17;;
3004;SDS011;1512;51.486;6.610;2022-08-01T10:45:28;2.43;;;2.23;;
3004;SDS011;1512;51.486;6.610;2022-08-01T10:50:26;2.27;;;2.03;;
3004;SDS011;1512;51.486;6.610;2022-08-01T10:53:59;3.47;;;2.30;;
3004;SDS011;1512;51.486;6.610;2022-08-01T10:58:12;3.20;;;1.80;;
3004;SDS011;1512;51.486;6.610;2022-08-01T11:02:25;2.73;;;2.30;;
3004;SDS011;1512;51.486;6.610;2022-08-01T11:06:41;2.80;;;2.37;;
3004;SDS011;1512;51.486;6.610;2022-08-01T11:10:59;2.70;;;2.40;;
3004;SDS011;1512;51.486;6.610;2022-08-01T11:19:23;2.73;;;2.47;;
3004;SDS011;1512;51.486;6.610;2022-08-01T11:23:33;2.57;;;2.37;;
3004;SDS011;1512;51.486;6.610;2022-08-01T11:27:45;2.50;;;2.30;;
3004;SDS011;1512;51.486;6.610;2022-08-01T11:31:55;3.23;;;2.30;;
3004;SDS011;1512;51.486;6.610;2022-08-01T11:40:37;2.60;;;2.40;;
3004;SDS011;1512;51.486;6.610;2022-08-01T11:44:49;3.70;;;2.50;;
3004;SDS011;1512;51.486;6.610;2022-08-01T11:49:45;2.47;;;1.90;;
3004;SDS011;1512;51.486;6.610;2022-08-01T11:53:28;2.60;;;2.40;;
3004;SDS011;1512;51.486;6.610;2022-08-01T11:57:41;2.80;;;2.60;;
3004;SDS011;1512;51.486;6.610;2022-08-01T12:01:52;2.50;;;2.30;;
3004;SDS011;1512;51.486;6.610;2022-08-01T12:06:00;2.57;;;2.37;;
3004;SDS011;1512;51.486;6.610;2022-08-01T12:10:14;2.50;;;2.30;;
3004;SDS011;1512;51.486;6.610;2022-08-01T12:14:25;2.63;;;2.43;;
3004;SDS011;1512;51.486;6.610;2022-08-01T12:18:38;2.50;;;2.30;;
3004;SDS011;1512;51.486;6.610;2022-08-01T12:22:52;2.80;;;2.60;;
3004;SDS011;1512;51.486;6.610;2022-08-01T12:27:01;2.90;;;2.60;;
3004;SDS011;1512;51.486;6.610;2022-08-01T12:31:11;2.60;;;2.40;;
3004;SDS011;1512;51.486;6.610;2022-08-01T12:35:21;3.10;;;2.80;;
3004;SDS011;1512;51.486;6.610;2022-08-01T12:39:34;2.50;;;2.30;;
3004;SDS011;1512;51.486;6.610;2022-08-01T12:43:46;2.67;;;2.43;;
3004;SDS011;1512;51.486;6.610;2022-08-01T12:47:55;2.80;;;2.60;;
3004;SDS011;1512;51.486;6.610;2022-08-01T12:52:06;2.63;;;2.43;;
3004;SDS011;1512;51.486;6.610;2022-08-01T12:56:17;3.00;;;2.70;;
3004;SDS011;1512;51.486;6.610;2022-08-01T13:00:30;3.33;;;3.07;;
3004;SDS011;1512;51.486;6.610;2022-08-01T13:04:51;2.93;;;2.63;;
3004;SDS011;1512;51.486;6.610;2022-08-01T13:09:06;2.67;;;2.47;;
3004;SDS011;1512;51.486;6.610;2022-08-01T13:13:18;2.63;;;2.43;;
3004;SDS011;1512;51.486;6.610;2022-08-01T13:17:30;3.70;;;2.73;;
3004;SDS011;1512;51.486;6.610;2022-08-01T13:21:39;4.90;;;3.13;;
3004;SDS011;1512;51.486;6.610;2022-08-01T13:25:54;4.43;;;2.87;;
3004;SDS011;1512;51.486;6.610;2022-08-01T13:30:10;3.00;;;2.37;;
3004;SDS011;1512;51.486;6.610;2022-08-01T13:34:34;2.33;;;2.13;;
3004;SDS011;1512;51.486;6.610;2022-08-01T13:38:51;2.90;;;2.70;;
3004;SDS011;1512;51.486;6.610;2022-08-01T13:43:17;3.13;;;2.80;;
3004;SDS011;1512;51.486;6.610;2022-08-01T13:47:26;2.80;;;2.43;;
3004;SDS011;1512;51.486;6.610;2022-08-01T13:51:37;2.83;;;2.53;;
3004;SDS011;1512;51.486;6.610;2022-08-01T13:55:46;2.80;;;2.40;;
3004;SDS011;1512;51.486;6.610;2022-08-01T13:59:55;2.87;;;2.63;;
3004;SDS011;1512;51.486;6.610;2022-08-01T14:04:06;2.90;;;2.70;;
3004;SDS011;1512;51.486;6.610;2022-08-01T14:08:14;4.30;;;2.80;;
3004;SDS011;1512;51.486;6.610;2022-08-01T14:12:23;2.97;;;2.60;;
3004;SDS011;1512;51.486;6.610;2022-08-01T14:16:32;2.50;;;2.30;;
3004;SDS011;1512;51.486;6.610;2022-08-01T14:20:42;2.83;;;2.40;;
3004;SDS011;1512;51.486;6.610;2022-08-01T14:24:50;2.83;;;2.60;;
3004;SDS011;1512;51.486;6.610;2022-08-01T14:29:01;2.60;;;2.40;;
3004;SDS011;1512;51.486;6.610;2022-08-01T14:33:10;2.83;;;2.57;;
3004;SDS011;1512;51.486;6.610;2022-08-01T14:37:20;3.43;;;2.70;;
3004;SDS011;1512;51.486;6.610;2022-08-01T14:41:30;2.50;;;2.30;;
3004;SDS011;1512;51.486;6.610;2022-08-01T14:45:39;2.63;;;2.40;;
3004;SDS011;1512;51.486;6.610;2022-08-01T14:49:48;5.00;;;2.57;;
3004;SDS011;1512;51.486;6.610;2022-08-01T14:53:57;3.47;;;2.90;;
3004;SDS011;1512;51.486;6.610;2022-08-01T14:58:07;2.58;;;2.35;;
3004;SDS011;1512;51.486;6.610;2022-08-01T15:02:15;2.80;;;2.60;;
3004;SDS011;1512;51.486;6.610;2022-08-01T15:06:25;2.80;;;2.60;;
3004;SDS011;1512;51.486;6.610;2022-08-01T15:10:33;5.93;;;2.50;;
3004;SDS011;1512;51.486;6.610;2022-08-01T15:14:42;2.73;;;2.53;;
3004;SDS011;1512;51.486;6.610;2022-08-01T15:18:57;2.70;;;2.40;;
3004;SDS011;1512;51.486;6.610;2022-08-01T15:23:06;4.50;;;2.97;;
3004;SDS011;1512;51.486;6.610;2022-08-01T15:27:14;3.07;;;2.77;;
3004;SDS011;1512;51.486;6.610;2022-08-01T15:31:23;2.77;;;2.57;;
3004;SDS011;1512;51.486;6.610;2022-08-01T15:35:33;2.90;;;2.53;;
3004;SDS011;1512;51.486;6.610;2022-08-01T15:39:42;2.50;;;2.30;;
3004;SDS011;1512;51.486;6.610;2022-08-01T15:43:51;3.40;;;3.10;;
3004;SDS011;1512;51.486;6.610;2022-08-01T15:48:02;3.03;;;2.47;;
3004;SDS011;1512;51.486;6.610;2022-08-01T15:52:10;3.93;;;3.40;;
3004;SDS011;1512;51.486;6.610;2022-08-01T15:56:21;2.50;;;2.30;;
3004;SDS011;1512;51.486;6.610;2022-08-01T16:00:30;2.87;;;2.67;;
3004;SDS011;1512;51.486;6.610;2022-08-01T16:09:09;3.53;;;2.70;;
3004;SDS011;1512;51.486;6.610;2022-08-01T16:13:19;2.50;;;2.30;;
3004;SDS011;1512;51.486;6.610;2022-08-01T16:21:56;4.23;;;2.30;;
3004;SDS011;1512;51.486;6.610;2022-08-01T16:26:05;2.77;;;2.57;;
3004;SDS011;1512;51.486;6.610;2022-08-01T16:30:16;3.10;;;2.80;;
3004;SDS011;1512;51.486;6.610;2022-08-01T16:34:25;3.23;;;2.90;;
3004;SDS011;1512;51.486;6.610;2022-08-01T16:38:34;3.03;;;2.63;;
3004;SDS011;1512;51.486;6.610;2022-08-01T16:42:43;2.93;;;2.63;;
3004;SDS011;1512;51.486;6.610;2022-08-01T16:46:52;3.10;;;2.80;;
3004;SDS011;1512;51.486;6.610;2022-08-01T16:51:00;2.60;;;2.23;;
3004;SDS011;1512;51.486;6.610;2022-08-01T16:55:09;3.23;;;2.90;;
3004;SDS011;1512;51.486;6.610;2022-08-01T16:59:18;3.50;;;2.60;;
3004;SDS011;1512;51.486;6.610;2022-08-01T17:03:26;2.80;;;2.60;;
3004;SDS011;1512;51.486;6.610;2022-08-01T17:07:37;3.60;;;3.30;;
3004;SDS011;1512;51.486;6.610;2022-08-01T17:11:47;2.80;;;2.60;;
3004;SDS011;1512;51.486;6.610;2022-08-01T17:15:55;3.50;;;3.20;;
3004;SDS011;1512;51.486;6.610;2022-08-01T17:20:04;2.83;;;2.63;;
3004;SDS011;1512;51.486;6.610;2022-08-01T17:24:14;3.13;;;2.83;;
3004;SDS011;1512;51.486;6.610;2022-08-01T17:28:22;3.57;;;2.90;;
3004;SDS011;1512;51.486;6.610;2022-08-01T17:32:31;3.53;;;2.90;;
3004;SDS011;1512;51.486;6.610;2022-08-01T17:36:42;3.97;;;3.50;;
3004;SDS011;1512;51.486;6.610;2022-08-01T17:40:50;7.03;;;3.10;;
3004;SDS011;1512;51.486;6.610;2022-08-01T17:44:59;5.50;;;3.00;;
3004;SDS011;1512;51.486;6.610;2022-08-01T17:49:09;3.40;;;3.10;;
3004;SDS011;1512;51.486;6.610;2022-08-01T17:53:18;3.40;;;2.93;;
3004;SDS011;1512;51.486;6.610;2022-08-01T17:57:27;3.90;;;3.20;;
3004;SDS011;1512;51.486;6.610;2022-08-01T18:01:36;6.87;;;2.97;;
3004;SDS011;1512;51.486;6.610;2022-08-01T18:05:47;3.07;;;2.87;;
3004;SDS011;1512;51.486;6.610;2022-08-01T18:09:57;3.90;;;3.00;;
3004;SDS011;1512;51.486;6.610;2022-08-01T18:14:06;3.30;;;3.00;;
3004;SDS011;1512;51.486;6.610;2022-08-01T18:18:17;3.50;;;3.20;;
3004;SDS011;1512;51.486;6.610;2022-08-01T18:22:28;6.10;;;3.33;;
3004;SDS011;1512;51.486;6.610;2022-08-01T18:26:42;4.57;;;2.80;;
3004;SDS011;1512;51.486;6.610;2022-08-01T18:30:51;4.23;;;3.40;;
3004;SDS011;1512;51.486;6.610;2022-08-01T18:35:00;3.70;;;3.20;;
3004;SDS011;1512;51.486;6.610;2022-08-01T18:39:10;3.40;;;3.10;;
3004;SDS011;1512;51.486;6.610;2022-08-01T18:43:20;5.20;;;3.00;;
3004;SDS011;1512;51.486;6.610;2022-08-01T18:47:28;6.60;;;3.67;;
3004;SDS011;1512;51.486;6.610;2022-08-01T18:51:37;3.10;;;2.80;;
3004;SDS011;1512;51.486;6.610;2022-08-01T18:55:48;3.10;;;2.80;;
3004;SDS011;1512;51.486;6.610;2022-08-01T18:59:57;5.30;;;4.80;;
3004;SDS011;1512;51.486;6.610;2022-08-01T19:04:06;3.37;;;3.07;;
3004;SDS011;1512;51.486;6.610;2022-08-01T19:08:15;4.40;;;3.10;;
3004;SDS011;1512;51.486;6.610;2022-08-01T19:12:23;5.17;;;3.83;;
3004;SDS011;1512;51.486;6.610;2022-08-01T19:16:33;3.93;;;3.53;;
3004;SDS011;1512;51.486;6.610;2022-08-01T19:20:41;3.97;;;3.50;;
3004;SDS011;1512;51.486;6.610;2022-08-01T19:24:51;3.40;;;3.10;;
3004;SDS011;1512;51.486;6.610;2022-08-01T19:29:01;4.58;;;3.15;;
3004;SDS011;1512;51.486;6.610;2022-08-01T19:33:14;4.47;;;2.93;;
3004;SDS011;1512;51.486;6.610;2022-08-01T19:37:25;3.63;;;3.00;;
3004;SDS011;1512;51.486;6.610;2022-08-01T19:41:35;4.60;;;3.00;;
3004;SDS011;1512;51.486;6.610;2022-08-01T19:45:44;3.07;;;2.77;;
3004;SDS011;1512;51.486;6.610;2022-08-01T19:49:54;3.30;;;3.00;;
3004;SDS011;1512;51.486;6.610;2022-08-01T19:54:04;3.67;;;3.33;;
3004;SDS011;1512;51.486;6.610;2022-08-01T19:58:13;4.53;;;3.37;;
3004;SDS011;1512;51.486;6.610;2022-08-01T20:02:25;4.30;;;2.80;;
3004;SDS011;1512;51.486;6.610;2022-08-01T20:06:35;3.40;;;3.10;;
3004;SDS011;1512;51.486;6.610;2022-08-01T20:10:44;9.43;;;3.47;;
3004;SDS011;1512;51.486;6.610;2022-08-01T20:14:54;3.80;;;3.33;;
3004;SDS011;1512;51.486;6.610;2022-08-01T20:19:03;4.70;;;3.40;;
3004;SDS011;1512;51.486;6.610;2022-08-01T20:23:12;4.50;;;3.50;;
3004;SDS011;1512;51.486;6.610;2022-08-01T20:27:26;3.70;;;3.40;;
3004;SDS011;1512;51.486;6.610;2022-08-01T20:31:36;6.83;;;3.40;;
3004;SDS011;1512;51.486;6.610;2022-08-01T20:35:51;3.50;;;3.20;;
3004;SDS011;1512;51.486;6.610;2022-08-01T20:40:01;3.97;;;3.57;;
3004;SDS011;1512;51.486;6.610;2022-08-01T20:44:10;4.77;;;3.40;;
3004;SDS011;1512;51.486;6.610;2022-08-01T20:48:19;4.70;;;3.80;;
3004;SDS011;1512;51.486;6.610;2022-08-01T20:56:58;5.33;;;4.57;;
3004;SDS011;1512;51.486;6.610;2022-08-01T21:01:11;6.10;;;3.93;;
3004;SDS011;1512;51.486;6.610;2022-08-01T21:05:33;5.70;;;4.00;;
3004;SDS011;1512;51.486;6.610;2022-08-01T21:09:42;5.07;;;3.67;;
3004;SDS011;1512;51.486;6.610;2022-08-01T21:13:53;5.73;;;3.73;;
3004;SDS011;1512;51.486;6.610;2022-08-01T21:18:14;5.10;;;3.93;;
3004;SDS011;1512;51.486;6.610;2022-08-01T21:22:36;4.33;;;3.93;;
3004;SDS011;1512;51.486;6.610;2022-08-01T21:26:46;3.47;;;3.17;;
3004;SDS011;1512;51.486;6.610;2022-08-01T21:30:56;3.33;;;2.97;;
3004;SDS011;1512;51.486;6.610;2022-08-01T21:35:06;4.10;;;3.70;;
3004;SDS011;1512;51.486;6.610;2022-08-01T21:39:17;4.25;;;3.85;;
3004;SDS011;1512;51.486;6.610;2022-08-01T21:43:26;6.80;;;3.50;;
3004;SDS011;1512;51.486;6.610;2022-08-01T21:47:36;4.50;;;3.40;;
3004;SDS011;1512;51.486;6.610;2022-08-01T21:51:50;4.57;;;3.17;;
3004;SDS011;1512;51.486;6.610;2022-08-01T21:56:16;3.50;;;3.20;;
3004;SDS011;1512;51.486;6.610;2022-08-01T22:00:26;4.37;;;3.20;;
3004;SDS011;1512;51.486;6.610;2022-08-01T22:04:44;5.20;;;4.00;;
3004;SDS011;1512;51.486;6.610;2022-08-01T22:09:03;4.43;;;3.53;;
3004;SDS011;1512;51.486;6.610;2022-08-01T22:13:13;5.20;;;2.90;;
3004;SDS011;1512;51.486;6.610;2022-08-01T22:17:22;3.90;;;3.20;;
3004;SDS011;1512;51.486;6.610;2022-08-01T22:21:31;4.33;;;3.13;;
3004;SDS011;1512;51.486;6.610;2022-08-01T22:25:41;4.33;;;3.30;;
3004;SDS011;1512;51.486;6.610;2022-08-01T22:29:55;5.20;;;3.47;;
3004;SDS011;1512;51.486;6.610;2022-08-01T22:34:06;4.65;;;3.15;;
3004;SDS011;1512;51.486;6.610;2022-08-01T22:42:47;6.40;;;4.63;;
3004;SDS011;1512;51.486;6.610;2022-08-01T22:47:06;4.77;;;4.10;;
3004;SDS011;1512;51.486;6.610;2022-08-01T22:51:25;8.07;;;4.70;;
3004;SDS011;1512;51.486;6.610;2022-08-01T22:55:39;5.87;;;3.80;;
3004;SDS011;1512;51.486;6.610;2022-08-01T23:04:15;3.33;;;2.87;;
3004;SDS011;1512;51.486;6.610;2022-08-01T23:08:20;4.97;;;3.60;;
3004;SDS011;1512;51.486;6.610;2022-08-01T23:12:30;4.20;;;3.37;;
3004;SDS011;1512;51.486;6.610;2022-08-01T23:16:39;4.17;;;3.70;;
3004;SDS011;1512;51.486;6.610;2022-08-01T23:20:49;3.83;;;3.43;;
3004;SDS011;1512;51.486;6.610;2022-08-01T23:24:59;5.30;;;3.87;;
3004;SDS011;1512;51.486;6.610;2022-08-01T23:29:11;3.60;;;3.07;;
3004;SDS011;1512;51.486;6.610;2022-08-01T23:37:48;3.40;;;3.10;;
3004;SDS011;1512;51.486;6.610;2022-08-01T23:41:57;8.10;;;4.70;;
3004;SDS011;1512;51.486;6.610;2022-08-01T23:46:08;4.70;;;4.20;;
3004;SDS011;1512;51.486;6.610;2022-08-01T23:50:17;6.30;;;3.93;;
3004;SDS011;1512;51.486;6.610;2022-08-01T23:54:28;3.63;;;3.33;;
3004;SDS011;1512;51.486;6.610;2022-08-01T23:58:37;4.43;;;3.50;;
